createdAt,value
2022-10-19T00:00:07.355Z,94221.34
2022-10-19T00:01:10.613Z,94294.47
2022-10-19T00:02:07.351Z,94327.72
2022-10-19T00:03:03.943Z,94337.31
2022-10-19T00:04:03.488Z,94338.75
2022-10-19T00:05:03.353Z,94304.06
2022-10-19T00:06:00.680Z,94332.53
2022-10-19T00:06:57.271Z,94325.81
2022-10-19T00:07:54.568Z,94336.66
2022-10-19T00:08:56.400Z,94335.31
2022-10-19T00:09:52.974Z,94329.25
2022-10-19T00:10:49.803Z,94328.19
2022-10-19T00:11:48.730Z,94331.38
2022-10-19T00:12:45.321Z,94335.41
2022-10-19T00:13:41.981Z,94331.13
2022-10-19T00:14:38.982Z,94324.34
2022-10-19T00:15:40.292Z,94337.34
2022-10-19T00:16:38.518Z,94321.44
2022-10-19T00:17:35.705Z,94319.22
2022-10-19T00:18:32.528Z,94269.22
2022-10-19T00:19:29.358Z,94318.13
2022-10-19T00:20:25.932Z,94258.66
2022-10-19T00:21:22.484Z,94316.88
2022-10-19T00:22:19.057Z,94306.47
2022-10-19T00:23:15.741Z,94302.97
2022-10-19T00:24:12.400Z,94306.66
2022-10-19T00:25:09.233Z,94297.34
2022-10-19T00:26:06.021Z,94226.00
2022-10-19T00:27:02.579Z,94269.63
2022-10-19T00:27:59.187Z,94305.06
2022-10-19T00:28:56.793Z,94296.19
2022-10-19T00:29:53.437Z,94299.66
2022-10-19T00:31:51.771Z,94270.75
2022-10-19T00:32:48.337Z,94295.50
2022-10-19T00:33:46.965Z,94287.13
2022-10-19T00:34:43.613Z,94280.97
2022-10-19T00:35:40.807Z,94297.78
2022-10-19T00:36:40.430Z,94285.50
2022-10-19T00:37:37.071Z,94293.56
2022-10-19T00:38:33.665Z,94291.69
2022-10-19T00:39:30.251Z,94246.03
2022-10-19T00:40:26.823Z,94270.22
2022-10-19T00:41:25.814Z,94289.38
2022-10-19T00:42:22.385Z,94283.59
2022-10-19T00:43:23.026Z,94262.84
2022-10-19T00:44:19.544Z,94277.69
2022-10-19T00:45:17.771Z,94278.22
2022-10-19T00:46:14.358Z,94273.03
2022-10-19T00:47:10.979Z,94277.34
2022-10-19T00:48:09.375Z,94221.13
2022-10-19T00:49:15.004Z,94270.53
2022-10-19T00:50:14.782Z,94221.25
2022-10-19T00:51:11.852Z,94245.94
2022-10-19T00:52:13.118Z,94266.91
2022-10-19T00:53:10.439Z,94215.75
2022-10-19T00:54:08.550Z,94269.69
2022-10-19T00:55:07.812Z,94262.94
2022-10-19T00:56:13.382Z,94260.91
2022-10-19T00:57:11.234Z,94262.84
2022-10-19T00:58:08.779Z,94259.31
2022-10-19T00:59:06.705Z,94259.81
2022-10-19T01:00:06.258Z,94223.16
2022-10-19T01:01:05.796Z,94255.03
2022-10-19T01:02:04.830Z,94253.75
2022-10-19T01:03:02.913Z,94251.88
2022-10-19T01:04:00.399Z,94234.56
2022-10-19T01:04:57.022Z,94248.88
2022-10-19T01:05:53.952Z,94231.97
2022-10-19T01:06:52.490Z,94255.31
2022-10-19T01:07:49.626Z,94220.19
2022-10-19T01:08:46.504Z,94245.28
2022-10-19T01:09:43.339Z,94222.56
2022-10-19T01:10:58.011Z,94250.28
2022-10-19T01:12:30.544Z,94249.50
2022-10-19T01:13:53.333Z,94249.78
2022-10-19T01:14:59.125Z,94243.47
2022-10-19T01:16:19.199Z,94249.78
2022-10-19T01:17:25.078Z,94245.16
2022-10-19T01:18:37.039Z,94244.63
2022-10-19T01:19:58.238Z,94241.38
2022-10-19T01:21:16.527Z,94237.03
2022-10-19T01:22:45.578Z,94241.13
2022-10-19T01:24:04.841Z,94236.19
2022-10-19T01:25:37.535Z,94238.47
2022-10-19T01:26:47.703Z,94229.09
2022-10-19T01:27:46.792Z,94228.56
2022-10-19T01:28:57.331Z,94217.31
2022-10-19T01:30:08.689Z,94227.19
2022-10-19T01:31:37.250Z,94223.78
2022-10-19T01:32:51.936Z,94223.47
2022-10-19T01:33:51.225Z,94219.59
2022-10-19T01:34:51.491Z,94230.09
2022-10-19T01:35:48.016Z,94215.50
2022-10-19T01:36:50.959Z,94218.44
2022-10-19T01:37:59.589Z,94214.66
2022-10-19T01:39:05.305Z,94214.66
2022-10-19T01:40:10.104Z,94208.53
2022-10-19T01:41:18.586Z,94209.22
2022-10-19T01:42:31.380Z,94212.00
2022-10-19T01:43:37.956Z,94210.66
2022-10-19T01:44:59.540Z,94171.69
2022-10-19T01:46:09.202Z,94216.28
2022-10-19T01:47:16.767Z,94212.16
2022-10-19T01:48:22.136Z,94208.44
2022-10-19T01:49:37.317Z,94209.69
2022-10-19T01:50:46.176Z,94204.19
2022-10-19T01:51:49.734Z,94205.41
2022-10-19T01:52:49.356Z,94166.25
2022-10-19T01:53:49.363Z,94182.19
2022-10-19T01:54:50.462Z,94210.63
2022-10-19T01:55:51.361Z,94194.13
2022-10-19T01:56:50.250Z,94205.38
2022-10-19T01:57:51.909Z,94204.25
2022-10-19T01:58:50.514Z,94206.72
2022-10-19T01:59:49.224Z,94216.44
2022-10-19T02:00:48.673Z,94209.31
2022-10-19T02:01:47.459Z,94207.97
2022-10-19T02:02:49.860Z,94202.38
2022-10-19T02:03:47.138Z,94205.44
2022-10-19T02:04:44.681Z,94166.63
2022-10-19T02:05:42.664Z,94189.97
2022-10-19T02:06:39.723Z,94174.94
2022-10-19T02:07:40.407Z,94204.25
2022-10-19T02:08:54.349Z,94163.63
2022-10-19T02:09:51.052Z,94202.31
2022-10-19T02:10:48.538Z,94147.59
2022-10-19T02:11:50.389Z,94195.00
2022-10-19T02:12:49.559Z,94136.34
2022-10-19T02:13:51.130Z,94134.91
2022-10-19T02:14:52.303Z,94194.34
2022-10-19T02:15:52.714Z,94195.16
2022-10-19T02:16:58.038Z,94155.19
2022-10-19T02:17:57.450Z,94193.34
2022-10-19T02:18:55.899Z,94172.53
2022-10-19T02:19:54.575Z,94179.97
2022-10-19T02:20:51.383Z,94157.38
2022-10-19T02:21:48.275Z,94183.50
2022-10-19T02:22:45.137Z,94191.91
2022-10-19T02:23:41.749Z,94179.78
2022-10-19T02:24:38.499Z,94186.94
2022-10-19T02:25:35.323Z,94185.53
2022-10-19T02:26:32.533Z,94180.19
2022-10-19T02:27:29.344Z,94152.59
2022-10-19T02:28:27.181Z,94161.03
2022-10-19T02:29:23.859Z,94183.94
2022-10-19T02:30:33.293Z,94187.50
2022-10-19T02:31:30.212Z,94191.72
2022-10-19T02:32:27.892Z,94189.25
2022-10-19T02:33:24.978Z,94160.03
2022-10-19T02:34:21.565Z,94188.44
2022-10-19T02:35:18.372Z,94190.81
2022-10-19T02:36:15.250Z,94188.03
2022-10-19T02:37:12.080Z,94193.34
2022-10-19T02:38:11.834Z,94178.91
2022-10-19T02:39:09.101Z,94197.78
2022-10-19T02:40:07.206Z,94178.50
2022-10-19T02:41:18.078Z,94194.78
2022-10-19T02:42:29.098Z,94155.19
2022-10-19T02:43:28.957Z,94193.91
2022-10-19T02:44:40.577Z,94169.78
2022-10-19T02:45:43.133Z,94193.19
2022-10-19T02:46:44.860Z,94194.13
2022-10-19T02:48:05.035Z,94178.28
2022-10-19T02:49:04.285Z,94189.81
2022-10-19T02:50:04.595Z,94193.91
2022-10-19T02:51:01.165Z,94192.97
2022-10-19T02:52:06.136Z,94189.16
2022-10-19T02:53:02.949Z,94193.94
2022-10-19T02:54:02.673Z,94194.31
2022-10-19T02:55:01.715Z,94189.25
2022-10-19T02:55:58.315Z,94193.75
2022-10-19T02:56:55.722Z,94184.78
2022-10-19T02:57:52.350Z,94194.75
2022-10-19T02:58:49.221Z,94192.28
2022-10-19T02:59:46.568Z,94192.00
2022-10-19T03:00:43.303Z,94191.34
2022-10-19T03:01:39.940Z,94204.44
2022-10-19T03:02:36.567Z,94187.69
2022-10-19T03:03:33.123Z,94195.91
2022-10-19T03:04:29.730Z,94192.41
2022-10-19T03:05:26.398Z,94196.63
2022-10-19T03:06:22.961Z,94197.78
2022-10-19T03:07:22.505Z,94190.66
2022-10-19T03:08:19.115Z,94199.56
2022-10-19T03:09:16.093Z,94146.84
2022-10-19T03:10:13.724Z,94194.75
2022-10-19T03:11:10.801Z,94115.75
2022-10-19T03:12:07.559Z,94170.28
2022-10-19T03:13:04.119Z,94196.53
2022-10-19T03:14:01.155Z,94196.78
2022-10-19T03:14:58.328Z,94166.78
2022-10-19T03:15:54.908Z,94191.13
2022-10-19T03:16:51.500Z,94182.53
2022-10-19T03:17:48.091Z,94188.41
2022-10-19T03:18:44.771Z,94186.72
2022-10-19T03:19:41.374Z,94181.75
2022-10-19T03:20:37.926Z,94184.78
2022-10-19T03:21:35.280Z,94190.66
2022-10-19T03:22:31.916Z,94188.41
2022-10-19T03:23:29.667Z,94188.97
2022-10-19T03:24:26.484Z,94190.53
2022-10-19T03:25:23.145Z,94178.78
2022-10-19T03:26:20.056Z,94184.09
2022-10-19T03:27:16.717Z,94182.31
2022-10-19T03:28:13.266Z,94183.72
2022-10-19T03:29:09.917Z,94183.31
2022-10-19T03:30:06.985Z,94179.50
2022-10-19T03:31:03.879Z,94183.59
2022-10-19T03:32:00.479Z,94181.03
2022-10-19T03:32:58.207Z,94184.09
2022-10-19T03:33:55.011Z,94181.25
2022-10-19T03:34:51.603Z,94183.38
2022-10-19T03:35:48.378Z,94171.75
2022-10-19T03:36:45.996Z,94183.38
2022-10-19T03:37:42.547Z,94143.13
2022-10-19T03:38:39.127Z,94188.19
2022-10-19T03:39:35.704Z,94189.06
2022-10-19T03:40:32.415Z,94173.81
2022-10-19T03:41:31.085Z,94184.28
2022-10-19T03:42:27.686Z,94182.53
2022-10-19T03:43:24.311Z,94182.91
2022-10-19T03:44:20.866Z,94162.69
2022-10-19T03:45:17.484Z,94187.19
2022-10-19T03:46:14.476Z,94195.28
2022-10-19T03:47:11.032Z,94182.00
2022-10-19T03:48:08.233Z,94155.50
2022-10-19T03:49:05.139Z,94151.31
2022-10-19T03:50:01.732Z,94142.53
2022-10-19T03:51:04.919Z,94184.75
2022-10-19T03:52:01.472Z,94190.44
2022-10-19T03:52:58.075Z,94188.09
2022-10-19T03:53:56.463Z,94188.97
2022-10-19T03:54:53.113Z,94184.50
2022-10-19T03:55:49.658Z,94178.00
2022-10-19T03:56:46.295Z,94183.00
2022-10-19T03:57:43.285Z,94174.09
2022-10-19T03:58:41.471Z,94176.34
2022-10-19T03:59:38.099Z,94184.78
2022-10-19T04:00:34.707Z,94175.88
2022-10-19T04:01:34.586Z,94179.47
2022-10-19T04:02:31.182Z,94167.66
2022-10-19T04:03:27.854Z,94158.75
2022-10-19T04:04:24.538Z,94167.09
2022-10-19T04:05:21.097Z,94169.91
2022-10-19T04:06:21.345Z,94169.34
2022-10-19T04:07:20.942Z,94166.00
2022-10-19T04:08:17.503Z,94159.63
2022-10-19T04:09:18.154Z,94105.75
2022-10-19T04:10:14.780Z,94168.84
2022-10-19T04:11:13.986Z,94169.53
2022-10-19T04:12:10.541Z,94169.50
2022-10-19T04:13:07.210Z,94134.88
2022-10-19T04:14:04.468Z,94163.25
2022-10-19T04:15:01.079Z,94160.81
2022-10-19T04:15:57.962Z,94166.59
2022-10-19T04:16:54.518Z,94167.56
2022-10-19T04:17:51.097Z,94163.97
2022-10-19T04:18:47.983Z,94160.03
2022-10-19T04:19:44.516Z,94163.34
2022-10-19T04:20:42.868Z,94161.50
2022-10-19T04:21:40.565Z,94159.75
2022-10-19T04:22:37.115Z,94163.66
2022-10-19T04:23:35.916Z,94160.31
2022-10-19T04:24:32.603Z,94157.94
2022-10-19T04:25:29.151Z,94163.25
2022-10-19T04:26:26.235Z,94159.84
2022-10-19T04:27:22.870Z,94159.84
2022-10-19T04:28:19.915Z,94157.00
2022-10-19T04:29:19.162Z,94159.31
2022-10-19T04:30:15.756Z,94155.41
2022-10-19T04:31:12.851Z,94159.34
2022-10-19T04:32:09.439Z,94104.13
2022-10-19T04:33:06.058Z,94156.69
2022-10-19T04:34:02.738Z,94160.91
2022-10-19T04:34:59.335Z,94156.66
2022-10-19T04:36:04.931Z,94160.59
2022-10-19T04:37:03.203Z,94155.69
2022-10-19T04:38:00.380Z,94101.47
2022-10-19T04:38:56.982Z,94161.13
2022-10-19T04:39:53.531Z,94141.16
2022-10-19T04:40:50.124Z,94162.88
2022-10-19T04:41:46.707Z,94143.00
2022-10-19T04:42:43.268Z,94153.09
2022-10-19T04:43:40.512Z,94155.72
2022-10-19T04:44:37.094Z,94138.88
2022-10-19T04:45:35.538Z,94158.16
2022-10-19T04:46:32.232Z,94124.94
2022-10-19T04:47:29.804Z,94130.22
2022-10-19T04:48:26.365Z,94115.59
2022-10-19T04:49:22.984Z,94160.88
2022-10-19T04:50:20.024Z,94157.16
2022-10-19T04:51:17.322Z,94146.50
2022-10-19T04:52:13.905Z,94164.41
2022-10-19T04:53:10.642Z,94164.19
2022-10-19T04:54:07.276Z,94164.34
2022-10-19T04:55:04.143Z,94160.72
2022-10-19T04:56:05.023Z,94161.47
2022-10-19T04:57:01.568Z,94156.38
2022-10-19T04:57:58.134Z,94152.72
2022-10-19T04:58:57.517Z,94149.91
2022-10-19T04:59:54.164Z,94163.09
2022-10-19T05:00:50.835Z,94152.16
2022-10-19T05:01:47.605Z,94148.84
2022-10-19T05:02:44.962Z,94121.19
2022-10-19T05:03:41.715Z,94154.25
2022-10-19T05:04:40.813Z,94137.13
2022-10-19T05:05:41.401Z,94108.31
2022-10-19T05:06:38.011Z,94137.25
2022-10-19T05:07:34.792Z,94133.91
2022-10-19T05:08:32.288Z,94143.59
2022-10-19T05:09:28.907Z,94147.03
2022-10-19T05:10:25.568Z,94140.19
2022-10-19T05:11:22.215Z,94102.75
2022-10-19T05:12:18.799Z,94148.50
2022-10-19T05:13:15.404Z,94142.44
2022-10-19T05:14:12.025Z,94149.00
2022-10-19T05:15:09.304Z,94133.16
2022-10-19T05:16:07.654Z,94141.75
2022-10-19T05:17:04.220Z,94104.00
2022-10-19T05:18:00.823Z,94146.59
2022-10-19T05:18:58.936Z,94152.22
2022-10-19T05:19:55.703Z,94148.78
2022-10-19T05:21:09.160Z,94150.47
2022-10-19T05:22:05.818Z,94149.06
2022-10-19T05:23:06.282Z,94144.34
2022-10-19T05:24:04.095Z,94143.94
2022-10-19T05:25:00.638Z,94146.31
2022-10-19T05:26:15.474Z,94155.88
2022-10-19T05:27:12.041Z,94153.31
2022-10-19T05:28:08.600Z,94140.28
2022-10-19T05:29:05.256Z,94152.41
2022-10-19T05:30:01.888Z,94132.75
2022-10-19T05:31:11.637Z,94145.94
2022-10-19T05:32:08.353Z,94130.00
2022-10-19T05:33:05.193Z,94146.00
2022-10-19T05:34:04.026Z,94149.38
2022-10-19T05:35:00.796Z,94146.97
2022-10-19T05:35:57.373Z,94154.56
2022-10-19T05:36:55.538Z,94153.66
2022-10-19T05:37:55.304Z,94159.31
2022-10-19T05:38:53.784Z,94153.31
2022-10-19T05:39:50.361Z,94132.75
2022-10-19T05:40:51.530Z,94155.72
2022-10-19T05:41:50.695Z,94147.38
2022-10-19T05:42:47.297Z,94086.72
2022-10-19T05:43:44.102Z,94112.50
2022-10-19T05:44:40.826Z,94150.63
2022-10-19T05:45:37.509Z,94156.59
2022-10-19T05:46:34.670Z,94155.16
2022-10-19T05:47:32.357Z,94150.50
2022-10-19T05:48:33.105Z,94158.59
2022-10-19T05:49:29.969Z,94159.53
2022-10-19T05:50:26.558Z,94046.38
2022-10-19T05:51:24.602Z,94142.06
2022-10-19T05:52:21.222Z,94148.84
2022-10-19T05:53:17.863Z,94154.31
2022-10-19T05:54:15.226Z,94150.38
2022-10-19T05:55:11.800Z,94134.19
2022-10-19T05:56:12.928Z,94145.84
2022-10-19T05:57:09.710Z,94146.50
2022-10-19T05:58:06.657Z,94148.22
2022-10-19T05:59:05.536Z,94149.16
2022-10-19T06:00:04.605Z,94147.47
2022-10-19T06:01:02.215Z,94150.44
2022-10-19T06:01:58.860Z,94087.50
2022-10-19T06:02:59.034Z,94121.44
2022-10-19T06:03:57.993Z,94122.72
2022-10-19T06:04:54.623Z,94155.25
2022-10-19T06:05:52.195Z,94160.38
2022-10-19T06:06:48.797Z,94151.22
2022-10-19T06:07:45.386Z,94144.22
2022-10-19T06:08:42.061Z,94156.22
2022-10-19T06:09:38.662Z,94157.47
2022-10-19T06:10:35.249Z,94162.94
2022-10-19T06:11:37.778Z,94156.38
2022-10-19T06:12:34.266Z,94163.41
2022-10-19T06:13:30.814Z,94160.78
2022-10-19T06:14:27.497Z,94165.16
2022-10-19T06:15:24.245Z,94162.94
2022-10-19T06:16:21.385Z,94169.38
2022-10-19T06:17:17.953Z,94174.97
2022-10-19T06:18:14.528Z,94147.63
2022-10-19T06:19:11.114Z,94171.41
2022-10-19T06:20:07.947Z,94173.88
2022-10-19T06:21:11.195Z,94178.56
2022-10-19T06:22:07.783Z,94173.69
2022-10-19T06:23:05.669Z,94180.44
2022-10-19T06:24:05.099Z,94178.72
2022-10-19T06:25:01.658Z,94174.66
2022-10-19T06:25:58.460Z,94177.31
2022-10-19T06:26:55.042Z,94181.84
2022-10-19T06:27:51.696Z,94147.81
2022-10-19T06:28:49.256Z,94179.81
2022-10-19T06:29:45.931Z,94177.63
2022-10-19T06:30:42.872Z,94168.72
2022-10-19T06:31:39.586Z,94173.72
2022-10-19T06:32:36.160Z,94184.97
2022-10-19T06:33:33.470Z,94175.41
2022-10-19T06:34:30.118Z,94182.00
2022-10-19T06:35:26.808Z,94162.75
2022-10-19T06:36:27.037Z,94184.91
2022-10-19T06:37:23.627Z,94178.06
2022-10-19T06:38:20.316Z,94188.53
2022-10-19T06:39:16.908Z,94138.72
2022-10-19T06:40:13.554Z,94185.84
2022-10-19T06:41:11.643Z,94147.66
2022-10-19T06:42:09.651Z,94183.03
2022-10-19T06:43:06.288Z,94186.78
2022-10-19T06:44:02.982Z,94179.72
2022-10-19T06:44:59.798Z,94172.41
2022-10-19T06:45:56.399Z,94181.63
2022-10-19T06:46:52.964Z,94166.44
2022-10-19T06:47:49.640Z,94170.06
2022-10-19T06:48:57.990Z,94179.69
2022-10-19T06:49:54.562Z,94171.44
2022-10-19T06:50:58.326Z,94137.88
2022-10-19T06:51:54.915Z,94177.53
2022-10-19T06:52:51.537Z,94174.19
2022-10-19T06:53:51.666Z,94155.59
2022-10-19T06:54:52.375Z,94157.03
2022-10-19T06:55:48.970Z,94176.34
2022-10-19T06:56:45.683Z,94169.09
2022-10-19T06:57:42.397Z,94161.50
2022-10-19T06:58:39.703Z,94167.34
2022-10-19T06:59:36.355Z,94170.66
2022-10-19T07:00:33.080Z,94170.91
2022-10-19T07:01:29.828Z,94138.78
2022-10-19T07:02:26.528Z,94169.38
2022-10-19T07:03:24.781Z,94132.00
2022-10-19T07:04:21.392Z,94168.75
2022-10-19T07:05:18.100Z,94167.94
2022-10-19T07:06:14.729Z,94168.47
2022-10-19T07:07:11.355Z,94129.53
2022-10-19T07:08:08.402Z,94157.63
2022-10-19T07:09:05.164Z,94159.41
2022-10-19T07:10:02.157Z,94168.28
2022-10-19T07:11:01.713Z,94166.13
2022-10-19T07:11:58.368Z,94163.94
2022-10-19T07:12:56.520Z,94165.19
2022-10-19T07:13:53.691Z,94151.50
2022-10-19T07:14:51.162Z,94144.22
2022-10-19T07:15:48.580Z,94168.28
2022-10-19T07:16:45.235Z,94167.25
2022-10-19T07:17:41.843Z,94125.97
2022-10-19T07:18:40.224Z,94157.91
2022-10-19T07:19:36.784Z,94162.66
2022-10-19T07:20:33.368Z,94158.09
2022-10-19T07:21:29.989Z,94138.59
2022-10-19T07:22:28.286Z,94147.81
2022-10-19T07:23:26.743Z,94161.34
2022-10-19T07:24:23.402Z,94146.94
2022-10-19T07:25:22.691Z,94160.25
2022-10-19T07:26:27.002Z,94156.66
2022-10-19T07:27:24.153Z,94162.59
2022-10-19T07:28:21.833Z,94161.97
2022-10-19T07:29:18.421Z,94163.66
2022-10-19T07:30:15.074Z,94150.84
2022-10-19T07:31:15.429Z,94164.59
2022-10-19T07:32:12.014Z,94160.97
2022-10-19T07:33:08.684Z,94163.94
2022-10-19T07:34:06.263Z,94156.03
2022-10-19T07:35:03.102Z,94141.78
2022-10-19T07:36:05.119Z,94154.25
2022-10-19T07:37:01.844Z,94151.50
2022-10-19T07:37:58.404Z,94113.84
2022-10-19T07:38:55.328Z,94147.41
2022-10-19T07:39:51.890Z,94140.66
2022-10-19T07:40:48.460Z,94149.75
2022-10-19T07:41:45.315Z,94141.50
2022-10-19T07:42:41.870Z,94132.09
2022-10-19T07:43:39.450Z,94134.31
2022-10-19T07:44:36.450Z,94111.09
2022-10-19T07:45:33.126Z,94091.31
2022-10-19T07:46:35.952Z,94133.84
2022-10-19T07:47:34.542Z,94143.09
2022-10-19T07:48:31.610Z,94129.19
2022-10-19T07:49:28.304Z,94131.97
2022-10-19T07:50:25.356Z,94132.28
2022-10-19T07:51:22.709Z,94130.50
2022-10-19T07:52:20.431Z,94133.41
2022-10-19T07:53:17.057Z,94118.34
2022-10-19T07:54:13.940Z,94135.34
2022-10-19T07:55:10.551Z,94137.59
2022-10-19T07:56:13.181Z,94136.94
2022-10-19T07:57:11.724Z,94126.22
2022-10-19T07:58:08.344Z,94121.56
2022-10-19T07:59:05.862Z,94139.25
2022-10-19T08:00:02.713Z,94131.50
2022-10-19T08:01:01.038Z,94123.88
2022-10-19T08:01:58.892Z,94113.94
2022-10-19T08:03:31.080Z,94116.88
2022-10-19T08:05:29.416Z,94122.69
2022-10-19T08:06:26.466Z,94115.53
2022-10-19T08:07:23.090Z,94124.41
2022-10-19T08:08:19.716Z,94114.00
2022-10-19T08:09:39.925Z,94122.53
2022-10-19T08:10:33.184Z,94121.06
2022-10-19T08:11:33.291Z,94088.72
2022-10-19T08:12:29.882Z,94124.19
2022-10-19T08:13:26.554Z,94123.06
2022-10-19T08:14:23.190Z,94117.72
2022-10-19T08:15:19.986Z,94117.31
2022-10-19T08:16:24.337Z,94118.50
2022-10-19T08:17:20.932Z,94118.84
2022-10-19T08:18:18.492Z,94111.97
2022-10-19T08:19:16.505Z,94117.03
2022-10-19T08:20:13.195Z,94115.53
2022-10-19T08:21:09.813Z,94115.81
2022-10-19T08:22:06.463Z,94110.38
2022-10-19T08:23:03.829Z,94120.13
2022-10-19T08:24:01.375Z,94089.75
2022-10-19T08:24:58.033Z,94112.88
2022-10-19T08:25:58.580Z,94081.56
2022-10-19T08:26:55.633Z,94119.41
2022-10-19T08:27:52.703Z,94101.59
2022-10-19T08:28:49.481Z,94105.19
2022-10-19T08:29:46.048Z,94103.94
2022-10-19T08:30:42.652Z,94103.59
2022-10-19T08:31:40.192Z,94101.38
2022-10-19T08:32:37.121Z,94092.97
2022-10-19T08:33:33.888Z,94104.50
2022-10-19T08:34:30.491Z,94072.47
2022-10-19T08:35:27.328Z,94072.31
2022-10-19T08:36:24.050Z,94106.69
2022-10-19T08:37:40.199Z,94100.09
2022-10-19T08:38:37.761Z,94096.81
2022-10-19T08:39:34.469Z,94103.03
2022-10-19T08:40:31.536Z,94060.16
2022-10-19T08:41:44.400Z,94099.66
2022-10-19T08:42:49.695Z,94103.19
2022-10-19T08:43:56.891Z,94077.47
2022-10-19T08:45:07.462Z,94106.28
2022-10-19T08:46:48.152Z,94105.94
2022-10-19T08:48:13.888Z,94102.84
2022-10-19T08:49:16.106Z,94102.38
2022-10-19T08:50:40.918Z,94093.19
2022-10-19T08:51:42.211Z,94100.78
2022-10-19T08:52:39.228Z,94070.41
2022-10-19T08:53:56.121Z,94098.53
2022-10-19T08:54:54.553Z,94089.78
2022-10-19T08:56:04.814Z,94044.38
2022-10-19T08:57:43.093Z,94086.97
2022-10-19T08:58:57.718Z,94093.44
2022-10-19T09:00:22.039Z,94102.22
2022-10-19T09:01:21.502Z,94097.53
2022-10-19T09:02:39.459Z,94096.97
2022-10-19T09:03:58.166Z,94093.72
2022-10-19T09:05:03.603Z,94074.53
2022-10-19T09:06:08.903Z,94088.47
2022-10-19T09:07:33.420Z,94094.59
2022-10-19T09:08:30.639Z,94051.81
2022-10-19T09:09:31.880Z,94093.59
2022-10-19T09:10:32.416Z,94064.91
2022-10-19T09:11:37.407Z,94030.03
2022-10-19T09:12:59.133Z,94090.66
2022-10-19T09:14:06.158Z,94020.22
2022-10-19T09:15:12.087Z,94097.09
2022-10-19T09:16:14.027Z,94088.16
2022-10-19T09:17:14.325Z,94098.72
2022-10-19T09:18:14.337Z,94093.00
2022-10-19T09:19:32.091Z,94099.84
2022-10-19T09:20:39.412Z,94081.97
2022-10-19T09:21:51.498Z,94098.84
2022-10-19T09:23:00.787Z,94098.69
2022-10-19T09:24:16.118Z,94098.25
2022-10-19T09:25:18.578Z,94096.84
2022-10-19T09:26:16.796Z,94096.53
2022-10-19T09:27:25.404Z,94098.81
2022-10-19T09:29:00.207Z,94089.16
2022-10-19T09:29:58.511Z,94059.00
2022-10-19T09:30:58.287Z,94099.47
2022-10-19T09:32:01.164Z,94090.63
2022-10-19T09:33:02.191Z,94089.94
2022-10-19T09:34:06.706Z,94089.47
2022-10-19T09:35:05.844Z,94097.53
2022-10-19T09:36:06.417Z,94091.19
2022-10-19T09:37:04.374Z,94099.41
2022-10-19T09:38:01.586Z,94085.19
2022-10-19T09:38:58.345Z,94087.59
2022-10-19T09:39:56.198Z,94096.75
2022-10-19T09:40:52.905Z,94083.50
2022-10-19T09:41:56.153Z,94089.13
2022-10-19T09:42:57.411Z,94084.78
2022-10-19T09:43:55.631Z,94084.34
2022-10-19T09:44:54.591Z,94085.09
2022-10-19T09:45:59.973Z,93997.44
2022-10-19T09:47:15.083Z,94084.84
2022-10-19T09:48:23.560Z,94085.84
2022-10-19T09:49:47.944Z,94083.19
2022-10-19T09:50:56.214Z,94082.84
2022-10-19T09:51:53.138Z,94040.53
2022-10-19T09:53:02.840Z,94070.47
2022-10-19T09:53:59.855Z,94068.94
2022-10-19T09:55:25.808Z,94071.94
2022-10-19T09:56:25.250Z,94068.69
2022-10-19T09:57:23.116Z,94032.88
2022-10-19T09:58:20.601Z,94063.88
2022-10-19T09:59:23.410Z,94069.59
2022-10-19T10:00:45.203Z,94042.38
2022-10-19T10:01:43.814Z,94033.22
2022-10-19T10:02:48.449Z,94063.03
2022-10-19T10:03:53.791Z,94054.19
2022-10-19T10:05:02.774Z,94061.22
2022-10-19T10:06:04.140Z,94057.34
2022-10-19T10:07:00.871Z,94049.38
2022-10-19T10:07:58.121Z,94050.88
2022-10-19T10:08:59.144Z,94043.63
2022-10-19T10:09:55.945Z,94015.00
2022-10-19T10:11:12.794Z,94041.16
2022-10-19T10:12:09.810Z,94047.31
2022-10-19T10:13:06.521Z,94021.13
2022-10-19T10:14:29.216Z,94036.19
2022-10-19T10:15:29.123Z,94043.16
2022-10-19T10:16:30.444Z,93976.47
2022-10-19T10:17:31.543Z,94036.28
2022-10-19T10:18:30.023Z,94043.25
2022-10-19T10:19:29.601Z,94038.19
2022-10-19T10:20:30.396Z,94036.19
2022-10-19T10:21:34.735Z,94037.69
2022-10-19T10:22:36.802Z,94025.38
2022-10-19T10:23:36.534Z,94023.53
2022-10-19T10:24:34.408Z,94029.38
2022-10-19T10:25:36.337Z,94023.19
2022-10-19T10:26:40.181Z,94030.50
2022-10-19T10:27:38.704Z,93971.00
2022-10-19T10:28:47.565Z,94017.78
2022-10-19T10:31:08.269Z,94019.31
2022-10-19T10:32:13.769Z,94013.50
2022-10-19T10:33:43.722Z,94006.59
2022-10-19T10:34:51.021Z,93995.78
2022-10-19T10:35:53.753Z,94002.34
2022-10-19T10:36:53.747Z,94006.19
2022-10-19T10:37:51.029Z,94001.47
2022-10-19T10:38:52.176Z,93996.06
2022-10-19T10:39:53.125Z,93990.19
2022-10-19T10:40:56.721Z,93992.97
2022-10-19T10:41:54.272Z,93964.09
2022-10-19T10:42:54.006Z,93993.75
2022-10-19T10:44:04.627Z,93991.72
2022-10-19T10:45:02.895Z,94001.16
2022-10-19T10:46:19.426Z,93993.34
2022-10-19T10:47:20.605Z,93991.63
2022-10-19T10:48:38.331Z,93984.81
2022-10-19T10:49:37.489Z,93983.97
2022-10-19T10:50:36.930Z,93986.53
2022-10-19T10:51:49.241Z,93981.72
2022-10-19T10:53:01.257Z,93984.69
2022-10-19T10:54:17.048Z,93966.44
2022-10-19T10:55:17.989Z,93973.84
2022-10-19T10:56:29.155Z,93981.41
2022-10-19T10:57:31.062Z,93967.31
2022-10-19T10:58:47.942Z,93982.16
2022-10-19T10:59:47.522Z,93977.22
2022-10-19T11:00:45.414Z,93973.53
2022-10-19T11:01:53.351Z,93975.91
2022-10-19T11:03:08.005Z,93973.97
2022-10-19T11:04:10.680Z,93974.69
2022-10-19T11:05:28.987Z,93939.19
2022-10-19T11:06:26.943Z,93971.97
2022-10-19T11:07:26.643Z,93972.88
2022-10-19T11:08:32.318Z,93969.13
2022-10-19T11:09:31.309Z,93971.13
2022-10-19T11:10:33.259Z,93963.38
2022-10-19T11:11:37.037Z,93961.50
2022-10-19T11:12:42.627Z,93963.69
2022-10-19T11:13:46.271Z,93965.78
2022-10-19T11:14:51.305Z,93964.75
2022-10-19T11:15:55.594Z,93959.38
2022-10-19T11:16:55.369Z,93926.41
2022-10-19T11:17:59.755Z,93957.28
2022-10-19T11:19:25.793Z,93956.00
2022-10-19T11:20:26.888Z,93954.50
2022-10-19T11:21:26.868Z,93963.53
2022-10-19T11:22:39.433Z,93959.59
2022-10-19T11:23:42.639Z,93958.72
2022-10-19T11:24:59.084Z,93956.09
2022-10-19T11:26:19.041Z,93950.66
2022-10-19T11:27:27.529Z,93903.44
2022-10-19T11:28:48.789Z,93955.50
2022-10-19T11:30:17.719Z,93956.03
2022-10-19T11:31:32.520Z,93952.09
2022-10-19T11:32:57.015Z,93948.94
2022-10-19T11:33:53.620Z,93945.94
2022-10-19T11:35:09.717Z,93929.25
2022-10-19T11:36:22.595Z,93902.78
2022-10-19T11:37:45.504Z,93933.97
2022-10-19T11:38:52.786Z,93933.56
2022-10-19T11:40:23.370Z,93902.66
2022-10-19T11:41:35.327Z,93926.59
2022-10-19T11:42:53.064Z,93924.22
2022-10-19T11:43:57.370Z,93911.22
2022-10-19T11:45:13.872Z,93914.22
2022-10-19T11:46:35.038Z,93908.75
2022-10-19T11:47:31.674Z,93909.19
2022-10-19T11:48:35.069Z,93893.91
2022-10-19T11:49:50.409Z,93905.91
2022-10-19T11:50:58.567Z,93911.91
2022-10-19T11:52:16.258Z,93897.78
2022-10-19T11:53:15.877Z,93902.88
2022-10-19T11:54:41.876Z,93906.72
2022-10-19T11:55:41.365Z,93907.25
2022-10-19T11:57:01.837Z,93897.50
2022-10-19T11:58:15.886Z,93900.91
2022-10-19T11:59:20.439Z,93893.16
2022-10-19T12:00:38.268Z,93891.31